Time;durP1;ratioP1;P1;durP2;ratioP2;P2;SDS_P1;SDS_P2;PMS_P1;PMS_P2;Temp;Humidity;BMP_temperature;BMP_pressure;BME280_temperature;BME280_humidity;BME280_pressure;Samples;Min_cycle;Max_cycle;Signal;HPM_P1;HPM_P2
2022/04/19 00:00:32;;;;;;;5.65;3.98;;;;;;;2.25;78.41;98898.58;1732376;82;20950;-69
2022/04/19 00:03:02;;;;;;;9.40;4.55;;;;;;;2.22;78.60;98895.87;1727594;81;20994;-69
2022/04/19 00:05:32;;;;;;;11.22;4.80;;;;;;;2.19;78.59;98892.38;1719533;82;20936;-69
2022/04/19 00:08:06;;;;;;;15.23;5.87;;;;;;;2.15;79.32;98899.97;1731946;81;21138;-68
2022/04/19 00:10:42;;;;;;;15.00;6.12;;;;;;;2.13;79.19;98895.37;1725994;82;20947;-68
2022/04/19 00:13:13;;;;;;;16.30;5.80;;;;;;;2.11;79.13;98900.25;1721726;80;20973;-68
2022/04/19 00:15:49;;;;;;;12.03;5.40;;;;;;;2.08;79.42;98896.73;1696930;83;21023;-67
2022/04/19 00:18:24;;;;;;;18.45;5.30;;;;;;;2.09;80.13;98897.01;1710319;82;21529;-68
2022/04/19 00:20:54;;;;;;;8.18;4.58;;;;;;;2.08;79.69;98896.20;1712339;82;21507;-68
2022/04/19 00:23:28;;;;;;;6.15;3.98;;;;;;;2.10;80.74;98898.09;1742816;81;21100;-68
2022/04/19 00:25:58;;;;;;;9.73;4.45;;;;;;;2.11;80.13;98896.19;1736531;81;21041;-68
2022/04/19 00:28:29;;;;;;;13.20;5.60;;;;;;;2.08;79.96;98895.39;1717600;82;20954;-68
2022/04/19 00:30:59;;;;;;;14.03;5.85;;;;;;;2.08;80.70;98898.09;1728392;81;21566;-68
2022/04/19 00:33:27;;;;;;;10.90;5.47;;;;;;;2.07;80.34;98898.64;1734186;81;22417;-68
2022/04/19 00:36:01;;;;;;;8.15;4.97;;;;;;;2.07;80.47;98893.77;1723588;81;21428;-68
2022/04/19 00:38:35;;;;;;;10.68;4.60;;;;;;;2.07;80.71;98887.81;1707687;82;20921;-67
2022/04/19 00:41:08;;;;;;;7.33;4.45;;;;;;;2.05;80.48;98890.52;1732562;81;20914;-68
2022/04/19 00:43:43;;;;;;;11.05;4.78;;;;;;;1.99;81.51;98886.48;1717127;82;20926;-69
2022/04/19 00:46:11;;;;;;;7.55;4.47;;;;;;;1.98;81.26;98887.56;1722984;82;21184;-69
2022/04/19 00:48:47;;;;;;;8.90;5.20;;;;;;;1.97;81.50;98885.94;1703833;82;21074;-69
2022/04/19 00:51:14;;;;;;;8.15;4.42;;;;;;;1.97;81.96;98885.94;1670002;83;21458;-69
2022/04/19 00:53:48;;;;;;;5.35;3.80;;;;;;;1.96;81.52;98891.09;1659112;85;21050;-69
2022/04/19 00:56:16;;;;;;;7.42;4.70;;;;;;;1.93;82.08;98887.58;1732758;81;20894;-69
2022/04/19 00:58:49;;;;;;;7.72;4.58;;;;;;;1.90;82.13;98892.19;1717085;81;21813;-68
2022/04/19 01:01:18;;;;;;;8.38;4.78;;;;;;;1.84;82.00;98885.16;1711605;82;21023;-68
2022/04/19 01:03:49;;;;;;;9.58;5.10;;;;;;;1.77;83.13;98890.05;1726115;81;20994;-68
2022/04/19 01:06:17;;;;;;;7.60;4.62;;;;;;;1.71;82.59;98891.17;1722313;81;20986;-68
2022/04/19 01:08:48;;;;;;;9.25;5.20;;;;;;;1.63;83.09;98894.44;1724857;81;20931;-68
2022/04/19 01:14:13;;;;;;;11.05;5.58;;;;;;;1.50;83.60;98893.64;1734492;81;38476;-69
2022/04/19 01:16:43;;;;;;;9.38;5.95;;;;;;;1.38;84.56;98892.56;1746015;82;20897;-69
2022/04/19 01:19:17;;;;;;;8.77;6.00;;;;;;;1.28;84.43;98892.56;1722614;82;20891;-69
2022/04/19 01:21:54;;;;;;;12.70;6.10;;;;;;;1.15;84.41;98889.89;1747567;82;21020;-67
2022/04/19 01:24:27;;;;;;;12.10;6.00;;;;;;;1.06;85.29;98890.70;1681882;83;20884;-68
2022/04/19 01:26:59;;;;;;;13.08;6.05;;;;;;;0.97;85.28;98887.72;1723733;82;21536;-67
2022/04/19 01:29:29;;;;;;;13.43;6.65;;;;;;;0.90;86.28;98890.68;1726261;82;21435;-67
2022/04/19 01:32:08;;;;;;;14.28;7.00;;;;;;;0.85;86.34;98885.27;1720002;82;20946;-67
2022/04/19 01:34:39;;;;;;;15.43;6.70;;;;;;;0.79;86.39;98876.88;1721465;82;21041;-67
2022/04/19 01:37:15;;;;;;;11.00;6.17;;;;;;;0.72;86.76;98877.68;1704600;82;21278;-67
2022/04/19 01:40:20;;;;;;;11.80;6.25;;;;;;;0.63;86.74;98877.39;1704358;83;20967;-67
2022/04/19 01:45:03;;;;;;;13.65;7.05;;;;;;;0.49;87.71;98881.70;1666956;83;20600;-67
2022/04/19 01:47:34;;;;;;;19.35;8.15;;;;;;;0.42;87.78;98882.50;1666104;83;20924;-68
2022/04/19 01:50:16;;;;;;;15.58;8.18;;;;;;;0.34;88.02;98880.31;1687225;83;21279;-67
2022/04/19 01:52:52;;;;;;;16.97;9.13;;;;;;;0.29;88.28;98884.34;1704264;83;21027;-67
2022/04/19 01:55:26;;;;;;;18.17;8.48;;;;;;;0.22;88.11;98887.28;1691529;83;21025;-67
2022/04/19 01:58:09;;;;;;;14.03;7.35;;;;;;;0.19;89.13;98884.30;1660106;83;21069;-67
2022/04/19 02:00:38;;;;;;;17.00;8.25;;;;;;;0.14;89.05;98885.63;1703806;83;20886;-67
2022/04/19 02:03:15;;;;;;;13.90;7.72;;;;;;;0.09;89.19;98886.42;1716220;83;21333;-67
2022/04/19 02:05:50;;;;;;;14.68;8.00;;;;;;;0.08;89.96;98877.23;1645297;85;21029;-67
2022/04/19 02:08:27;;;;;;;14.75;7.72;;;;;;;0.09;89.82;98875.63;1653123;86;20959;-68
2022/04/19 02:11:00;;;;;;;15.20;7.95;;;;;;;0.08;90.35;98869.14;1660126;84;20992;-68
2022/04/19 02:13:28;;;;;;;13.10;6.67;;;;;;;0.06;90.14;98876.69;1696506;83;21518;-67
2022/04/19 02:16:12;;;;;;;14.38;7.75;;;;;;;0.05;90.34;98876.41;1677679;84;21120;-66
2022/04/19 02:18:45;;;;;;;14.83;7.55;;;;;;;0.07;90.67;98871.56;1690574;83;21572;-66
2022/04/19 02:21:15;;;;;;;14.95;7.22;;;;;;;0.08;90.78;98875.89;1697353;83;20951;-67
2022/04/19 02:23:43;;;;;;;12.03;7.10;;;;;;;0.11;91.04;98878.06;1684801;83;21132;-67
2022/04/19 02:26:13;;;;;;;22.20;10.20;;;;;;;0.10;90.92;98883.18;1708268;83;20933;-66
2022/04/19 02:28:45;;;;;;;18.02;9.55;;;;;;;0.08;91.21;98879.94;1697188;83;21436;-66
2022/04/19 02:31:15;;;;;;;22.17;10.23;;;;;;;0.07;91.19;98881.83;1691504;83;21042;-66
2022/04/19 02:33:47;;;;;;;19.70;9.55;;;;;;;0.09;91.25;98874.81;1712611;82;21021;-67
2022/04/19 02:36:19;;;;;;;17.23;9.88;;;;;;;0.10;91.47;98881.30;1706642;82;21528;-66
2022/04/19 02:38:50;;;;;;;20.43;9.90;;;;;;;0.11;91.45;98883.45;1715974;83;21531;-66
2022/04/19 02:41:21;;;;;;;17.15;8.83;;;;;;;0.13;91.58;98877.26;1715266;81;20940;-67
2022/04/19 02:43:59;;;;;;;16.12;8.20;;;;;;;0.14;91.55;98874.83;1711585;81;20900;-67
2022/04/19 02:46:26;;;;;;;14.43;7.83;;;;;;;0.18;91.52;98870.53;1715228;81;20928;-67
2022/04/19 02:48:58;;;;;;;11.95;7.03;;;;;;;0.20;91.46;98872.43;1715454;82;21002;-67
2022/04/19 02:51:29;;;;;;;14.23;7.85;;;;;;;0.22;91.56;98877.02;1731816;80;20988;-66
2022/04/19 02:54:04;;;;;;;12.90;7.37;;;;;;;0.20;91.52;98867.03;1757004;81;20968;-66
2022/04/19 02:56:34;;;;;;;13.08;7.25;;;;;;;0.18;91.67;98866.48;1762469;80;20919;-67
2022/04/19 02:59:06;;;;;;;12.37;7.72;;;;;;;0.20;92.76;98861.63;1754415;80;20893;-68
2022/04/19 03:01:42;;;;;;;11.12;6.78;;;;;;;0.22;92.43;98854.89;1754304;80;20900;-69
2022/04/19 03:04:18;;;;;;;14.93;6.58;;;;;;;0.20;92.22;98847.59;1726074;81;21038;-69
2022/04/19 03:06:50;;;;;;;12.78;6.70;;;;;;;0.17;92.17;98842.73;1751998;81;21177;-70
2022/04/19 03:09:19;;;;;;;16.05;7.90;;;;;;;0.16;92.15;98847.04;1757930;81;21585;-71
2022/04/19 03:11:47;;;;;;;20.97;9.45;;;;;;;0.12;92.06;98845.41;1751122;81;21021;-70
2022/04/19 03:14:14;;;;;;;16.35;7.92;;;;;;;0.08;92.27;98843.50;1746881;81;21066;-68
2022/04/19 03:16:47;;;;;;;19.50;9.45;;;;;;;0.05;92.42;98844.03;1747590;81;21022;-69
2022/04/19 03:19:16;;;;;;;17.92;9.20;;;;;;;0.03;92.55;98842.13;1752319;81;21455;-67
2022/04/19 03:21:47;;;;;;;16.48;8.00;;;;;;;0.03;93.37;98840.78;1754582;80;21015;-67
2022/04/19 03:29:52;;;;;;;13.08;5.97;;;;;;;-0.02;93.26;98834.32;1762422;80;21005;-67
2022/04/19 03:32:23;;;;;;;11.43;6.03;;;;;;;-0.04;93.46;98830.27;1751035;81;21171;-67
2022/04/19 03:34:55;;;;;;;11.90;6.47;;;;;;;-0.06;93.51;98835.92;1759010;80;20904;-67
2022/04/19 03:37:25;;;;;;;11.63;6.37;;;;;;;-0.08;93.44;98835.37;1747535;81;20872;-67
2022/04/19 03:39:52;;;;;;;11.10;6.37;;;;;;;-0.10;93.62;98842.92;1754895;81;21440;-67
2022/04/19 03:42:21;;;;;;;14.58;8.15;;;;;;;-0.10;93.81;98851.55;1752267;80;21455;-67
2022/04/19 03:44:55;;;;;;;13.58;7.60;;;;;;;-0.11;93.85;98859.38;1756464;80;21278;-67
2022/04/19 03:47:23;;;;;;;12.68;8.33;;;;;;;-0.09;94.28;98861.27;1758658;81;20873;-65
2022/04/19 03:49:56;;;;;;;13.80;7.47;;;;;;;-0.07;94.46;98857.23;1724312;81;20885;-66
2022/04/19 03:52:28;;;;;;;16.32;9.13;;;;;;;-0.06;94.62;98858.86;1762837;81;20991;-65
2022/04/19 03:54:58;;;;;;;14.05;7.47;;;;;;;-0.04;94.71;98858.59;1758181;81;20987;-66
2022/04/19 03:57:29;;;;;;;14.07;8.00;;;;;;;-0.04;94.60;98854.01;1757642;80;21255;-65
2022/04/19 03:59:59;;;;;;;12.07;7.35;;;;;;;-0.06;94.49;98858.86;1754410;80;21026;-66
2022/04/19 04:02:31;;;;;;;15.65;6.92;;;;;;;-0.08;94.57;98858.84;1755622;81;21023;-66
2022/04/19 04:05:03;;;;;;;10.93;6.70;;;;;;;-0.07;94.79;98873.96;1761639;80;20932;-69
2022/04/19 04:07:30;;;;;;;13.48;7.12;;;;;;;-0.06;94.83;98880.45;1758487;81;20951;-67
2022/04/19 04:10:03;;;;;;;13.08;7.40;;;;;;;-0.04;94.89;98883.69;1736561;81;21572;-67
2022/04/19 04:12:35;;;;;;;13.60;6.67;;;;;;;-0.01;94.92;98876.95;1750876;81;21041;-67
2022/04/19 04:15:08;;;;;;;15.48;6.90;;;;;;;0.03;95.02;98875.86;1756617;81;21012;-67
2022/04/19 04:17:41;;;;;;;13.10;6.35;;;;;;;0.05;95.50;98876.41;1748443;81;20974;-67
2022/04/19 04:20:11;;;;;;;13.45;6.87;;;;;;;0.07;95.57;98867.52;1718928;81;21573;-66
2022/04/19 04:22:43;;;;;;;13.93;6.95;;;;;;;0.09;95.54;98862.67;1753670;81;21108;-67
2022/04/19 04:25:12;;;;;;;11.12;6.30;;;;;;;0.10;95.54;98861.59;1764223;80;20837;-68
2022/04/19 04:27:45;;;;;;;14.00;6.50;;;;;;;0.12;95.71;98858.09;1728382;81;21467;-67
2022/04/19 04:30:12;;;;;;;11.55;6.42;;;;;;;0.14;95.76;98850.55;1751021;80;20977;-67
2022/04/19 04:32:44;;;;;;;9.80;6.12;;;;;;;0.17;96.07;98842.73;1735596;81;21443;-67
2022/04/19 04:35:15;;;;;;;13.18;6.97;;;;;;;0.22;96.25;98833.30;1759993;80;21260;-67
2022/04/19 04:37:49;;;;;;;16.15;6.75;;;;;;;0.26;96.21;98824.94;1724124;81;20903;-67
2022/04/19 04:40:22;;;;;;;11.73;6.60;;;;;;;0.28;96.26;98814.69;1735836;81;21526;-66
2022/04/19 04:42:55;;;;;;;13.38;7.03;;;;;;;0.30;96.42;98813.07;1750620;81;21093;-66
2022/04/19 04:45:25;;;;;;;11.78;7.03;;;;;;;0.36;97.40;98811.20;1749468;81;21120;-66
2022/04/19 04:50:44;;;;;;;12.70;7.37;;;;;;;0.39;97.03;98816.88;1749180;80;21504;-66
2022/04/19 04:53:14;;;;;;;10.75;6.53;;;;;;;0.42;96.93;98820.93;1756734;81;20894;-66
2022/04/19 04:55:44;;;;;;;12.07;7.35;;;;;;;0.46;97.05;98828.77;1756528;80;21042;-66
2022/04/19 04:58:16;;;;;;;10.63;6.20;;;;;;;0.50;97.57;98834.72;1735505;81;21526;-66
2022/04/19 05:00:47;;;;;;;10.38;6.37;;;;;;;0.57;97.52;98836.63;1759858;81;21379;-66
2022/04/19 05:03:15;;;;;;;11.95;7.15;;;;;;;0.64;97.41;98837.14;1758349;81;20881;-66
2022/04/19 05:05:48;;;;;;;13.05;7.20;;;;;;;0.71;97.19;98850.94;1753546;81;20848;-66
2022/04/19 05:08:18;;;;;;;18.95;8.53;;;;;;;0.76;97.23;98851.75;1762233;80;20928;-66
2022/04/19 05:10:46;;;;;;;14.13;7.65;;;;;;;0.85;97.32;98849.33;1752823;81;21568;-66
2022/04/19 05:13:18;;;;;;;14.73;8.20;;;;;;;0.92;97.29;98846.63;1754234;80;21634;-65
2022/04/19 05:15:46;;;;;;;14.27;7.33;;;;;;;1.01;96.95;98850.16;1756964;80;20972;-66
2022/04/19 05:18:18;;;;;;;14.68;7.40;;;;;;;1.06;96.76;98843.39;1756266;80;21026;-68
2022/04/19 05:20:48;;;;;;;11.78;6.85;;;;;;;1.09;96.69;98846.37;1723721;82;21051;-68
2022/04/19 05:23:23;;;;;;;14.03;7.55;;;;;;;1.17;97.24;98866.07;1748874;80;20852;-68
2022/04/19 05:25:53;;;;;;;15.85;8.88;;;;;;;1.24;96.99;98867.16;1763021;81;21199;-68
2022/04/19 05:28:29;;;;;;;14.70;8.53;;;;;;;1.31;96.67;98874.45;1755103;81;20892;-68
2022/04/19 05:31:02;;;;;;;13.18;8.28;;;;;;;1.39;96.51;98878.50;1756012;81;20893;-68
2022/04/19 05:33:42;;;;;;;15.65;8.60;;;;;;;1.49;96.62;98871.73;1738523;81;21429;-69
2022/04/19 05:36:06;;;;;;;16.02;8.50;;;;;;;1.62;96.86;98867.11;1730478;81;21440;-67
2022/04/19 05:38:33;;;;;;;16.55;8.63;;;;;;;1.75;96.10;98862.45;1754055;80;21424;-68
2022/04/19 05:41:00;;;;;;;16.60;7.97;;;;;;;1.87;95.86;98868.92;1756806;81;20908;-68
2022/04/19 05:43:32;;;;;;;15.25;7.30;;;;;;;1.96;95.50;98854.55;1764189;80;21447;-69
2022/04/19 05:46:00;;;;;;;11.97;6.95;;;;;;;2.05;94.86;98852.63;1762388;81;20940;-69
2022/04/19 05:48:29;;;;;;;13.38;6.65;;;;;;;2.13;95.47;98846.09;1762081;81;21483;-68
2022/04/19 05:51:01;;;;;;;16.55;8.60;;;;;;;2.23;94.60;98846.59;1761964;81;20964;-68
2022/04/19 05:53:34;;;;;;;12.47;6.95;;;;;;;2.29;94.20;98849.54;1754423;81;21431;-68
2022/04/19 05:56:06;;;;;;;13.80;7.25;;;;;;;2.38;93.90;98854.61;1753874;81;20865;-68
2022/04/19 05:58:42;;;;;;;11.30;6.40;;;;;;;2.47;94.00;98857.00;1749314;81;20996;-68
2022/04/19 06:01:09;;;;;;;13.22;7.03;;;;;;;2.60;93.71;98851.52;1756037;80;20999;-68
2022/04/19 06:06:31;;;;;;;10.53;5.33;;;;;;;2.86;91.74;98836.70;1750442;80;20968;-68
2022/04/19 06:09:03;;;;;;;6.75;4.20;;;;;;;2.97;89.63;98844.19;1751590;80;20972;-68
2022/04/19 06:11:33;;;;;;;7.77;4.87;;;;;;;3.06;89.69;98849.27;1735649;81;20982;-68
2022/04/19 06:14:04;;;;;;;6.85;4.85;;;;;;;3.19;89.80;98839.67;1762864;81;21172;-68
2022/04/19 06:16:40;;;;;;;8.50;4.62;;;;;;;3.31;89.35;98830.62;1747009;81;21885;-69
2022/04/19 06:19:12;;;;;;;5.97;4.03;;;;;;;3.44;87.55;98841.36;1727594;81;20853;-68
2022/04/19 06:21:48;;;;;;;7.67;5.03;;;;;;;3.51;87.59;98849.39;1757591;80;20972;-67
2022/04/19 06:24:14;;;;;;;8.55;5.17;;;;;;;3.57;87.62;98861.81;1748665;81;20853;-67
2022/04/19 06:26:45;;;;;;;6.12;4.50;;;;;;;3.68;87.01;98866.59;1757036;80;20947;-67
2022/04/19 06:29:19;;;;;;;6.58;4.35;;;;;;;3.82;87.05;98876.23;1751752;80;21133;-69
2022/04/19 06:31:52;;;;;;;9.18;5.17;;;;;;;3.95;85.41;98873.64;1744064;81;20997;-69
2022/04/19 06:34:26;;;;;;;5.47;4.03;;;;;;;4.11;84.96;98878.88;1750510;81;20921;-68
2022/04/19 06:37:02;;;;;;;5.45;3.87;;;;;;;4.27;83.98;98866.18;1731807;81;21606;-67
2022/04/19 06:39:33;;;;;;;13.83;4.33;;;;;;;4.54;80.92;98860.67;1681246;81;20996;-67
2022/04/19 06:42:03;;;;;;;5.47;3.58;;;;;;;4.54;80.92;98860.67;1763548;81;21405;-67
2022/04/19 06:44:36;;;;;;;7.42;4.17;;;;;;;4.65;80.17;98860.22;1749052;81;21086;-67
2022/04/19 06:47:07;;;;;;;4.95;3.30;;;;;;;4.81;73.77;98866.25;1759112;81;20950;-67
2022/04/19 06:49:43;;;;;;;3.77;2.67;;;;;;;4.82;72.45;98862.98;1734826;81;20884;-66
2022/04/19 06:52:15;;;;;;;4.00;2.40;;;;;;;4.84;70.64;98871.09;1753603;81;20877;-67
2022/04/19 06:54:44;;;;;;;4.08;2.35;;;;;;;4.84;70.64;98871.09;1728009;81;21193;-67
2022/04/19 06:57:22;;;;;;;5.60;2.67;;;;;;;4.86;69.86;98875.69;1724972;81;20868;-67
2022/04/19 06:59:55;;;;;;;4.47;2.25;;;;;;;4.94;70.96;98861.98;1729603;81;20991;-67
2022/04/19 07:02:25;;;;;;;3.12;1.90;;;;;;;5.22;69.75;98857.44;1752634;81;20932;-67
2022/04/19 07:05:12;;;;;;;3.22;1.98;;;;;;;5.46;66.37;98849.14;1760847;80;20872;-67
2022/04/19 07:07:42;;;;;;;2.43;1.60;;;;;;;5.59;63.72;98842.92;1751124;81;21833;-67
2022/04/19 07:10:15;;;;;;;3.58;2.02;;;;;;;5.70;62.77;98832.09;1748969;81;21460;-67
2022/04/19 07:12:50;;;;;;;5.33;2.17;;;;;;;5.74;63.24;98829.02;1760523;80;21502;-67
2022/04/19 07:15:21;;;;;;;4.55;2.52;;;;;;;5.83;62.95;98824.47;1758012;80;20956;-67
2022/04/19 07:17:52;;;;;;;5.05;2.62;;;;;;;5.99;63.32;98820.11;1750317;80;20987;-67
2022/04/19 07:28:47;;;;;;;3.42;2.17;;;;;;;6.34;60.21;98794.05;1754379;81;20976;-69
2022/04/19 07:31:21;;;;;;;7.75;2.30;;;;;;;6.42;58.78;98794.66;1723006;81;21058;-69
2022/04/19 07:33:53;;;;;;;5.40;3.05;;;;;;;6.42;60.43;98795.45;1723269;82;21503;-68
2022/04/19 07:36:24;;;;;;;3.72;2.62;;;;;;;6.56;60.23;98776.34;1698114;83;20921;-68
2022/04/19 07:39:03;;;;;;;4.78;2.75;;;;;;;6.78;60.10;98782.37;1695096;83;20899;-66
2022/04/19 07:41:34;;;;;;;3.95;2.87;;;;;;;7.03;59.88;98789.12;1688912;83;20873;-66
2022/04/19 07:44:06;;;;;;;4.10;2.50;;;;;;;7.35;56.90;98783.95;1696018;83;21495;-66
2022/04/19 07:46:45;;;;;;;5.87;3.62;;;;;;;7.43;56.07;98779.09;1714262;83;21141;-67
2022/04/19 07:49:15;;;;;;;4.78;2.83;;;;;;;7.62;59.19;98783.17;1691578;83;20907;-68
2022/04/19 07:51:43;;;;;;;4.35;2.80;;;;;;;8.11;57.15;98791.37;1704823;83;20991;-68
2022/04/19 07:54:15;;;;;;;4.67;3.08;;;;;;;8.64;56.29;98790.37;1689631;83;20916;-77
2022/04/19 07:56:44;;;;;;;3.95;2.30;;;;;;;9.16;54.99;98790.56;1683942;83;20998;-77
2022/04/19 07:59:21;;;;;;;3.98;2.47;;;;;;;9.23;51.08;98796.35;1678728;84;21459;-74
2022/04/19 08:01:51;;;;;;;6.08;3.02;;;;;;;8.73;50.81;98796.06;1657237;84;20921;-72
2022/04/19 08:04:24;;;;;;;4.13;2.40;;;;;;;8.45;52.96;98794.20;1684304;83;20942;-79
2022/04/19 08:06:57;;;;;;;;;;;;;;;8.65;54.03;98795.52;1722714;81;21021;-71
2022/04/19 08:09:27;;;;;;;2.90;2.10;;;;;;;8.92;51.54;98784.79;1728019;81;20807;-72
2022/04/19 08:11:57;;;;;;;5.05;3.27;;;;;;;9.11;52.59;98785.82;1747606;81;21119;-69
2022/04/19 08:14:36;;;;;;;3.83;2.37;;;;;;;9.39;53.11;98786.23;1732966;81;21537;-70
2022/04/19 08:17:09;;;;;;;3.83;2.62;;;;;;;9.74;51.20;98787.73;1730443;82;20976;-73
2022/04/19 08:19:42;;;;;;;5.08;2.67;;;;;;;9.93;49.66;98780.45;1739416;81;20983;-79
2022/04/19 08:22:12;;;;;;;;;;;;;;;10.05;49.70;98782.49;1736391;82;20969;-79
2022/04/19 08:24:47;;;;;;;3.17;1.87;;;;;;;10.20;49.29;98773.16;1722780;82;21105;-68
2022/04/19 08:27:16;;;;;;;3.30;2.10;;;;;;;10.42;49.37;98750.08;1725729;82;21024;-67
2022/04/19 08:29:48;;;;;;;5.35;2.87;;;;;;;10.61;47.78;98763.34;1700911;82;20954;-74
2022/04/19 08:32:15;;;;;;;12.33;2.67;;;;;;;10.51;47.73;98752.19;1739037;81;20912;-70
2022/04/19 08:34:51;;;;;;;4.47;2.62;;;;;;;10.41;48.80;98749.04;1708502;82;21438;-68
2022/04/19 08:37:20;;;;;;;6.05;2.55;;;;;;;10.57;49.43;98749.48;1731549;82;21454;-70
2022/04/19 08:39:59;;;;;;;11.25;2.85;;;;;;;10.93;49.67;98737.08;1731452;81;20939;-68
2022/04/19 08:42:33;;;;;;;5.15;2.40;;;;;;;11.19;47.95;98750.53;1745698;80;21646;-70
2022/04/19 08:45:05;;;;;;;3.20;2.50;;;;;;;11.15;48.63;98745.48;1725308;82;20901;-66
2022/04/19 08:47:53;;;;;;;4.33;2.80;;;;;;;11.14;48.17;98748.80;1740566;82;20953;-75
2022/04/19 08:50:22;;;;;;;4.75;2.60;;;;;;;11.18;46.81;98727.75;1763352;80;21306;-76
2022/04/19 08:57:29;;;;;;;4.12;2.70;;;;;;;11.00;47.39;98733.19;1733393;80;21522;-82
2022/04/19 08:58:10;;;;;;;4.05;2.47;;;;;;;10.52;48.67;98730.47;1764735;80;20962;-76
2022/04/19 09:00:41;;;;;;;5.92;2.52;;;;;;;10.44;48.15;98746.44;1724112;82;20946;-84
2022/04/19 09:03:08;;;;;;;3.85;2.47;;;;;;;10.36;49.43;98742.41;1733136;82;21225;-76
2022/04/19 09:05:51;;;;;;;4.20;2.42;;;;;;;10.60;49.25;98735.66;1704561;83;20968;-80
2022/04/19 09:08:25;;;;;;;;;;;;;;;10.77;48.44;98730.59;1758302;80;20935;-79
2022/04/19 09:10:51;;;;;;;4.30;2.42;;;;;;;10.89;48.99;98732.02;1714762;82;20122;-79
2022/04/19 09:13:26;;;;;;;3.35;2.22;;;;;;;11.29;49.73;98728.69;1673217;82;20975;-67
2022/04/19 09:16:06;;;;;;;4.72;2.72;;;;;;;11.81;48.23;98745.38;1729760;82;20945;-70
2022/04/19 09:18:36;;;;;;;4.12;1.85;;;;;;;11.85;44.91;98744.36;1728741;82;21033;-71
2022/04/19 09:21:05;;;;;;;6.20;2.40;;;;;;;11.65;46.04;98750.72;1741353;82;20863;-70
2022/04/19 09:23:42;;;;;;;4.27;1.97;;;;;;;11.70;47.19;98741.45;1738016;82;20884;-71
2022/04/19 09:26:11;;;;;;;3.98;2.10;;;;;;;11.81;44.54;98739.88;1739134;82;20899;-71
2022/04/19 09:28:42;;;;;;;5.47;1.90;;;;;;;11.41;45.53;98747.95;1705966;82;20924;-72
2022/04/19 09:31:15;;;;;;;5.17;2.17;;;;;;;11.12;46.21;98742.84;1731833;82;21515;-71
2022/04/19 09:33:44;;;;;;;3.52;2.37;;;;;;;10.93;47.18;98733.52;1736803;82;21048;-71
2022/04/19 09:36:16;;;;;;;3.65;2.10;;;;;;;10.83;48.52;98743.78;1681120;82;20868;-72
2022/04/19 09:38:47;;;;;;;3.37;2.35;;;;;;;10.70;47.14;98752.30;1697681;81;20951;-69
2022/04/19 09:41:33;;;;;;;2.90;2.00;;;;;;;10.47;48.01;98749.88;1734176;81;21440;-74
2022/04/19 09:44:12;;;;;;;2.62;1.75;;;;;;;10.39;49.23;98746.66;1737392;82;20844;-72
2022/04/19 09:47:11;;;;;;;3.35;2.15;;;;;;;10.36;49.67;98748.70;1740496;81;20935;-78
2022/04/19 09:49:51;;;;;;;2.92;1.98;;;;;;;10.33;49.21;98753.48;1733326;82;20892;-75
2022/04/19 09:52:28;;;;;;;1.85;1.50;;;;;;;10.22;50.19;98744.03;1733903;81;20896;-72
2022/04/19 09:55:08;;;;;;;4.10;1.37;;;;;;;10.05;49.42;98754.50;1726215;82;21978;-71
2022/04/19 09:57:49;;;;;;;3.45;1.70;;;;;;;9.88;50.50;98751.84;1726041;82;21021;-71
2022/04/19 10:00:16;;;;;;;2.33;1.87;;;;;;;9.85;52.19;98759.36;1738424;81;20903;-69
2022/04/19 10:08:22;;;;;;;3.17;1.42;;;;;;;9.73;50.71;98759.28;1738380;81;21306;-75
2022/04/19 10:10:56;;;;;;;2.75;1.60;;;;;;;9.79;51.31;98761.52;1713163;83;21030;-73
2022/04/19 10:13:26;;;;;;;3.87;2.33;;;;;;;9.88;50.60;98760.08;1731874;82;20878;-76
2022/04/19 10:16:06;;;;;;;2.80;1.93;;;;;;;9.95;51.27;98763.11;1730634;81;20977;-78
2022/04/19 10:18:36;;;;;;;4.30;1.70;;;;;;;10.17;51.82;98764.77;1729799;82;20910;-80
2022/04/19 10:21:11;;;;;;;2.30;1.15;;;;;;;10.53;51.51;98759.52;1737054;81;20902;-80
2022/04/19 10:23:46;;;;;;;4.47;1.50;;;;;;;10.86;51.20;98754.66;1671947;85;20912;-84
2022/04/19 10:26:24;;;;;;;5.42;1.40;;;;;;;11.09;49.10;98746.27;1664076;85;21528;-76
2022/04/19 10:28:58;;;;;;;4.05;1.40;;;;;;;11.08;48.47;98750.15;1686472;83;21020;-77
2022/04/19 10:31:40;;;;;;;2.35;1.30;;;;;;;11.05;48.83;98751.39;1686830;84;20908;-87
2022/04/19 10:34:11;;;;;;;3.20;2.20;;;;;;;11.17;49.27;98748.69;1646524;85;20967;-75
2022/04/19 10:36:45;;;;;;;2.65;1.60;;;;;;;11.42;48.86;98759.18;1640332;85;21592;-77
2022/04/19 10:39:19;;;;;;;2.35;1.35;;;;;;;11.58;48.19;98766.97;1729016;82;20935;-76
2022/04/19 10:41:57;;;;;;;5.03;1.32;;;;;;;11.68;47.89;98766.53;1729866;81;20979;-70
2022/04/19 10:44:49;;;;;;;5.30;1.77;;;;;;;11.74;46.20;98767.91;1734296;81;21026;-70
2022/04/19 10:47:23;;;;;;;4.53;1.40;;;;;;;11.56;46.65;98759.64;1730837;82;25622;-69
2022/04/19 10:50:03;;;;;;;1.92;1.20;;;;;;;11.65;47.93;98758.97;1671220;84;21688;-69
2022/04/19 10:52:43;;;;;;;2.45;1.00;;;;;;;11.82;46.66;98762.11;1729508;82;21022;-72
2022/04/19 10:55:24;;;;;;;3.65;1.30;;;;;;;12.00;47.24;98747.56;1725645;82;20982;-77
2022/04/19 11:00:55;;;;;;;2.42;1.32;;;;;;;12.22;46.04;98745.69;1735812;82;20995;-75
2022/04/19 11:03:52;;;;;;;2.15;1.30;;;;;;;12.43;45.04;98753.23;1701639;83;21598;-74
2022/04/19 11:06:40;;;;;;;3.42;0.98;;;;;;;12.46;44.66;98749.78;1709863;82;21530;-73
2022/04/19 11:09:26;;;;;;;4.10;1.55;;;;;;;12.40;44.69;98751.17;1712737;81;21006;-69
2022/04/19 11:12:15;;;;;;;1.37;1.07;;;;;;;12.43;45.30;98749.10;1670958;84;20970;-70
2022/04/19 11:14:45;;;;;;;2.77;1.27;;;;;;;12.45;44.25;98734.42;1701865;83;21168;-81
2022/04/19 11:17:29;;;;;;;3.45;1.27;;;;;;;12.58;43.55;98738.52;1693131;83;21059;-73
2022/04/19 11:20:18;;;;;;;1.92;1.20;;;;;;;12.67;44.30;98738.61;1688485;84;21687;-72
2022/04/19 11:22:53;;;;;;;2.33;1.20;;;;;;;12.88;43.70;98735.64;1663221;85;21470;-70
2022/04/19 11:25:45;;;;;;;1.20;1.10;;;;;;;12.88;42.78;98732.89;1708784;82;20952;-71
2022/04/19 11:28:29;;;;;;;4.58;1.40;;;;;;;13.04;44.03;98728.23;1725691;82;21165;-69
2022/04/19 11:31:01;;;;;;;2.35;1.05;;;;;;;13.36;42.75;98720.03;1737197;82;21018;-69
2022/04/19 11:33:38;;;;;;;2.42;1.10;;;;;;;13.82;43.21;98720.63;1729464;82;21452;-72
2022/04/19 11:36:13;;;;;;;1.52;1.10;;;;;;;14.18;43.07;98711.20;1727741;81;20897;-75
2022/04/19 11:38:52;;;;;;;4.87;1.32;;;;;;;14.57;39.68;98707.71;1731609;82;21544;-72
2022/04/19 11:46:44;;;;;;;2.73;1.50;;;;;;;15.19;39.50;98710.14;1707198;81;20946;-73
2022/04/19 11:46:51;;;;;;;11.10;1.82;;;;;;;15.57;39.12;98699.39;1729754;82;21615;-76
2022/04/19 11:49:31;;;;;;;3.08;1.98;;;;;;;15.63;40.08;98698.67;1735797;82;20983;-80
2022/04/19 11:51:59;;;;;;;7.03;1.98;;;;;;;15.78;36.88;98676.20;1738005;81;20951;-73
2022/04/19 11:54:35;;;;;;;1.65;1.17;;;;;;;15.82;38.37;98696.42;1729770;82;21727;-81
2022/04/19 11:57:10;;;;;;;2.12;1.37;;;;;;;15.76;36.56;98685.45;1645463;85;21003;-87
2022/04/19 11:59:41;;;;;;;1.92;1.25;;;;;;;15.40;38.16;98692.34;1733830;82;20944;-80
2022/04/19 12:02:20;;;;;;;1.50;1.20;;;;;;;15.27;37.71;98687.57;1733273;82;20929;-72
2022/04/19 12:05:02;;;;;;;2.52;1.70;;;;;;;15.17;37.93;98693.12;1732948;82;21533;-68
2022/04/19 12:07:27;;;;;;;1.65;1.27;;;;;;;14.82;38.50;98694.64;1732963;82;21317;-68
2022/04/19 12:09:59;;;;;;;1.80;1.50;;;;;;;14.78;38.85;98691.00;1704192;82;21022;-68
2022/04/19 12:12:35;;;;;;;4.40;1.30;;;;;;;14.91;39.95;98688.89;1688786;83;20950;-66
2022/04/19 12:15:08;;;;;;;5.78;1.30;;;;;;;15.14;39.75;98688.32;1684213;83;21001;-68
2022/04/19 12:17:48;;;;;;;1.72;1.30;;;;;;;15.36;37.93;98685.36;1673812;83;20979;-67
2022/04/19 12:20:17;;;;;;;2.67;1.40;;;;;;;15.25;38.13;98692.67;1729878;81;21236;-66
2022/04/19 12:22:55;;;;;;;2.80;1.60;;;;;;;15.11;38.37;98677.20;1729632;82;20898;-67
2022/04/19 12:25:26;;;;;;;;;;;;;;;15.07;38.02;98672.98;1730859;82;21543;-67
2022/04/19 12:27:55;;;;;;;1.87;1.47;;;;;;;15.22;39.70;98669.10;1734901;82;20137;-67
2022/04/19 12:30:28;;;;;;;2.50;1.20;;;;;;;15.48;38.11;98656.14;1729264;82;20987;-67
2022/04/19 12:33:03;;;;;;;2.12;1.32;;;;;;;15.65;37.62;98661.76;1706865;82;21113;-67
2022/04/19 12:35:39;;;;;;;3.05;1.80;;;;;;;15.61;37.58;98662.87;1698847;81;21041;-67
2022/04/19 12:38:17;;;;;;;2.30;1.65;;;;;;;15.40;37.58;98669.63;1727731;82;20985;-66
2022/04/19 12:40:50;;;;;;;2.95;1.65;;;;;;;15.27;37.45;98664.07;1728941;81;20943;-67
2022/04/19 12:43:32;;;;;;;5.03;1.55;;;;;;;15.18;38.49;98660.74;1725634;82;20943;-67